Flight Track Log - Related Links

Times and Time Zones

All times are in EDT time to prevent confusion due to time zone crossing. See the SKW6492 flight status page for this flight to view local times or setup timezone preferences in your user account.

Time Position Orientation Groundspeed Altitude Reporting Facility
EDT Latitude Longitude Course Direction KTS MPH feet Rate Location/Type
Mon 09:39:00 PM 40.0946 -104.8729 327° Northwest  Level Estimated
Mon 09:40:00 PM 40.1722 -104.9398 327° Northwest  Level Estimated
Mon 09:41:00 PM 40.2497 -105.0068 327° Northwest  Level Estimated
Mon 09:42:00 PM 40.3272 -105.0740 327° Northwest  Level Estimated
Mon 09:43:00 PM 40.4047 -105.1413 327° Northwest  Level Estimated
Mon 09:44:00 PM 40.4821 -105.2088 326° Northwest  Level Estimated
Mon 09:45:00 PM 40.5595 -105.2764 326° Northwest  Level Estimated
Mon 09:46:00 PM 40.6368 -105.3442 326° Northwest  Level Estimated
Mon 09:47:00 PM 40.7141 -105.4122 326° Northwest  Level Estimated
Mon 09:48:00 PM 40.7914 -105.4803 326° Northwest  Level Estimated
Mon 09:49:00 PM 40.8686 -105.5486 326° Northwest  Level Estimated
Mon 09:50:00 PM 40.9458 -105.6170 326° Northwest  Level Estimated
Mon 09:51:00 PM 41.0229 -105.6856 326° Northwest  Level Estimated
Mon 09:52:00 PM 41.1000 -105.7544 326° Northwest  Level Estimated
Mon 09:53:00 PM 41.1771 -105.8233 326° Northwest  Level Estimated
Mon 09:54:00 PM 41.2541 -105.8924 326° Northwest  Level Estimated
Mon 09:55:00 PM 41.3311 -105.9616 326° Northwest  Level Estimated
Mon 09:56:00 PM 41.4080 -106.0311 326° Northwest  Level Estimated
Mon 09:57:00 PM 41.4849 -106.1006 326° Northwest  Level Estimated
Mon 09:58:00 PM 41.5618 -106.1704 326° Northwest  Level Estimated
Mon 09:59:00 PM 41.6386 -106.2403 326° Northwest  Level Estimated
Mon 10:00:00 PM 41.7153 -106.3103 326° Northwest  Level Estimated
Mon 10:01:00 PM 41.7920 -106.3806 326° Northwest  Level Estimated
Mon 10:02:00 PM 41.8687 -106.4510 326° Northwest  Level Estimated
Mon 10:03:00 PM 41.9454 -106.5216 326° Northwest  Level Estimated
Mon 10:04:00 PM 42.0220 -106.5923 326° Northwest  Level Estimated
Mon 10:05:00 PM 42.0985 -106.6632 326° Northwest  Level Estimated
Mon 10:06:00 PM 42.1750 -106.7343 325° Northwest  Level Estimated
Mon 10:07:00 PM 42.2515 -106.8056 325° Northwest  Level Estimated
Mon 10:08:00 PM 42.3279 -106.8770 325° Northwest  Level Estimated
Mon 10:09:00 PM 42.4043 -106.9486 325° Northwest  Level Estimated
Mon 10:10:00 PM 42.4806 -107.0204 325° Northwest  Level Estimated
Mon 10:11:00 PM 42.5569 -107.0924 325° Northwest  Level Estimated
Mon 10:12:00 PM 42.6331 -107.1645 325° Northwest  Level Estimated
Mon 10:13:00 PM 42.7093 -107.2368 325° Northwest  Level Estimated
Mon 10:14:00 PM 42.7855 -107.3093 325° Northwest  Level Estimated
Mon 10:15:00 PM 42.8616 -107.3820 325° Northwest  Level Estimated
Mon 10:16:00 PM 42.9376 -107.4548 325° Northwest  Level Estimated
Mon 10:17:00 PM 43.0136 -107.5278 325° Northwest  Level Estimated
Mon 10:18:00 PM 43.0896 -107.6010 325° Northwest  Level Estimated
Mon 10:19:00 PM 43.1655 -107.6744 325° Northwest  Level Estimated
Mon 10:20:00 PM 43.2414 -107.7480 325° Northwest  Level Estimated
Mon 10:21:00 PM 43.3172 -107.8217 325° Northwest  Level Estimated
Mon 10:22:00 PM 43.3930 -107.8957 325° Northwest  Level Estimated
Mon 10:23:00 PM 43.4687 -107.9698 325° Northwest  Level Estimated
Mon 10:24:00 PM 43.5444 -108.0441 325° Northwest  Level Estimated
Mon 10:25:00 PM 43.6200 -108.1186 325° Northwest  Level Estimated
Mon 10:26:00 PM 43.6956 -108.1933 324° Northwest  Level Estimated
Mon 10:27:00 PM 43.7711 -108.2682 324° Northwest  Level Estimated
Mon 10:28:00 PM 43.8466 -108.3432 324° Northwest  Level Estimated
Mon 10:29:00 PM 43.9220 -108.4185 324° Northwest  Level Estimated
Mon 10:30:00 PM 43.9974 -108.4939 324° Northwest  Level Estimated
Mon 10:31:00 PM 44.0728 -108.5695 324° Northwest  Level Estimated
Mon 10:32:00 PM 44.1480 -108.6454 324° Northwest  Level Estimated
Mon 10:33:00 PM 44.2233 -108.7214 324° Northwest  Level Estimated
Mon 10:34:00 PM 44.2985 -108.7976 324° Northwest  Level Estimated
Mon 10:35:00 PM 44.3736 -108.8740 324° Northwest  Level Estimated
Mon 10:36:00 PM 44.4487 -108.9506 324° Northwest  Level Estimated
Mon 10:37:00 PM 44.5202 -109.0238 324° Northwest  Level Estimated
Mon 10:38:00 PM 44.5202 -109.0238 35° Northeast  Level Estimated
Mon 10:39:00 PM 44.5202 -109.0238 35° Northeast  Level Estimated
Mon 10:40:00 PM 44.5202 -109.0238 35° Northeast  Level Estimated
Mon 10:41:00 PM 44.5202 -109.0238 35° Northeast  Level Estimated
Mon 10:42:00 PM 44.5202 -109.0238 35° Northeast  Level Estimated
Mon 10:43:00 PM 44.5202 -109.0238 35° Northeast  Level Estimated
Mon 10:44:00 PM 44.5202 -109.0238 35° Northeast  Level Estimated
Mon 10:45:00 PM 44.5202 -109.0238 35° Northeast  Level Estimated

Login

Don't have an account? Register now (free) for customized features, flight alerts, and more!